createdAt,value
2023-02-14T00:00:27.834Z,95945.97
2023-02-14T00:02:54.590Z,95944.94
2023-02-14T00:05:21.115Z,95939.81
2023-02-14T00:07:47.643Z,95935.25
2023-02-14T00:10:14.142Z,95941.72
2023-02-14T00:12:40.630Z,95940.41
2023-02-14T00:15:22.374Z,95936.09
2023-02-14T00:17:50.263Z,95943.88
2023-02-14T00:20:17.072Z,95944.66
2023-02-14T00:22:43.879Z,95946.00
2023-02-14T00:25:10.546Z,95950.38
2023-02-14T00:27:37.560Z,95935.63
2023-02-14T00:30:06.337Z,95940.47
2023-02-14T00:32:32.885Z,95934.59
2023-02-14T00:34:59.619Z,95932.41
2023-02-14T00:37:26.221Z,95924.88
2023-02-14T00:39:52.976Z,95930.19
2023-02-14T00:42:19.512Z,95928.34
2023-02-14T00:44:46.106Z,95927.25
2023-02-14T00:47:12.602Z,95924.06
2023-02-14T00:49:39.121Z,95924.88
2023-02-14T00:52:05.689Z,95916.00
2023-02-14T00:54:32.239Z,95927.56
2023-02-14T00:56:59.302Z,95923.75
2023-02-14T00:59:25.965Z,95924.34
2023-02-14T01:01:52.510Z,95921.91
2023-02-14T01:04:19.022Z,95924.88
2023-02-14T01:06:45.965Z,95925.13
2023-02-14T01:09:13.082Z,95918.97
2023-02-14T01:11:40.024Z,95922.44
2023-02-14T01:14:06.545Z,95920.56
2023-02-14T01:16:33.606Z,95913.59
2023-02-14T01:19:01.128Z,95916.28
2023-02-14T01:21:30.372Z,95919.56
2023-02-14T01:23:59.140Z,95923.31
2023-02-14T01:26:26.287Z,95918.72
2023-02-14T01:28:52.829Z,95922.78
2023-02-14T01:31:26.208Z,95918.13
2023-02-14T01:33:53.850Z,95915.47
2023-02-14T01:36:28.483Z,95922.47
2023-02-14T01:39:04.664Z,95916.38
2023-02-14T01:41:34.168Z,95916.66
2023-02-14T01:44:00.682Z,95918.28
2023-02-14T01:46:30.355Z,95915.56
2023-02-14T01:49:03.779Z,95916.91
2023-02-14T01:51:32.446Z,95916.91
2023-02-14T01:53:59.703Z,95907.78
2023-02-14T01:56:38.330Z,95903.97
2023-02-14T01:59:10.918Z,95909.09
2023-02-14T02:01:38.579Z,95902.91
2023-02-14T02:04:17.355Z,95906.16
2023-02-14T02:06:57.191Z,95904.03
2023-02-14T02:09:33.349Z,95904.25
2023-02-14T02:12:00.948Z,95897.28
2023-02-14T02:14:29.570Z,95902.69
2023-02-14T02:17:11.259Z,95899.72
2023-02-14T02:20:08.655Z,95893.56
2023-02-14T02:22:35.957Z,95891.72
2023-02-14T02:25:21.243Z,95887.13
2023-02-14T02:28:20.024Z,95880.94
2023-02-14T02:31:15.811Z,95880.41
2023-02-14T02:33:57.365Z,95883.66
2023-02-14T02:36:48.363Z,95886.59
2023-02-14T02:39:23.760Z,95876.69
2023-02-14T02:42:05.102Z,95882.88
2023-02-14T02:44:50.755Z,95878.88
2023-02-14T02:47:26.713Z,95883.56
2023-02-14T02:50:38.181Z,95875.81
2023-02-14T02:53:11.298Z,95884.44
2023-02-14T02:56:15.561Z,95885.19
2023-02-14T02:58:46.747Z,95881.47
2023-02-14T03:01:17.460Z,95898.44
2023-02-14T03:04:07.012Z,95900.59
2023-02-14T03:06:34.190Z,95894.69
2023-02-14T03:09:30.116Z,95890.41
2023-02-14T03:12:08.032Z,95886.44
2023-02-14T03:14:50.165Z,95885.03
2023-02-14T03:17:51.850Z,95886.38
2023-02-14T03:20:29.674Z,95881.84
2023-02-14T03:23:03.613Z,95885.34
2023-02-14T03:25:45.185Z,95876.72
2023-02-14T03:28:24.651Z,95879.16
2023-02-14T03:30:56.948Z,95875.09
2023-02-14T03:33:44.041Z,95870.28
2023-02-14T03:36:17.323Z,95864.88
2023-02-14T03:39:10.436Z,95871.03
2023-02-14T03:41:43.770Z,95868.09
2023-02-14T03:44:12.510Z,95865.44
2023-02-14T03:46:49.943Z,95869.97
2023-02-14T03:49:23.864Z,95867.06
2023-02-14T03:51:54.894Z,95867.34
2023-02-14T03:54:23.539Z,95863.31
2023-02-14T03:56:54.579Z,95862.19
2023-02-14T03:59:24.455Z,95860.88
2023-02-14T04:02:06.029Z,95859.78
2023-02-14T04:04:35.898Z,95859.50
2023-02-14T04:07:28.360Z,95861.94
2023-02-14T04:09:55.002Z,95861.41
2023-02-14T04:12:32.402Z,95860.81
2023-02-14T04:15:04.594Z,95859.69
2023-02-14T04:17:49.300Z,95856.69
2023-02-14T04:20:15.830Z,95865.91
2023-02-14T04:22:42.358Z,95855.72
2023-02-14T04:25:08.844Z,95857.34
2023-02-14T04:27:35.342Z,95860.28
2023-02-14T04:30:01.936Z,95861.59
2023-02-14T04:32:28.488Z,95863.69
2023-02-14T04:34:55.062Z,95861.84
2023-02-14T04:37:21.553Z,95865.09
2023-02-14T04:39:48.180Z,95861.59
2023-02-14T04:42:14.859Z,95862.38
2023-02-14T04:44:41.594Z,95868.00
2023-02-14T04:47:08.658Z,95867.75
2023-02-14T04:49:35.779Z,95867.53
2023-02-14T04:52:02.614Z,95872.09
2023-02-14T04:54:29.211Z,95870.53
2023-02-14T04:56:55.767Z,95864.91
2023-02-14T04:59:24.697Z,95870.03
2023-02-14T05:01:51.690Z,95873.25
2023-02-14T05:04:18.190Z,95871.66
2023-02-14T05:06:44.691Z,95875.13
2023-02-14T05:09:11.212Z,95869.50
2023-02-14T05:11:38.298Z,95870.31
2023-02-14T05:14:04.809Z,95865.78
2023-02-14T05:16:31.409Z,95869.53
2023-02-14T05:18:57.924Z,95863.88
2023-02-14T05:21:24.538Z,95873.75
2023-02-14T05:23:51.021Z,95866.47
2023-02-14T05:26:17.556Z,95872.66
2023-02-14T05:28:44.042Z,95869.16
2023-02-14T05:31:10.679Z,95872.94
2023-02-14T05:33:37.501Z,95873.50
2023-02-14T05:36:04.312Z,95882.03
2023-02-14T05:38:33.365Z,95878.63
2023-02-14T05:41:00.163Z,95877.22
2023-02-14T05:43:27.207Z,95874.03
2023-02-14T05:45:54.616Z,95879.66
2023-02-14T05:48:21.338Z,95870.53
2023-02-14T05:50:48.177Z,95875.09
2023-02-14T05:53:15.017Z,95881.03
2023-02-14T05:55:41.493Z,95882.59
2023-02-14T05:58:08.161Z,95878.28
2023-02-14T06:00:34.875Z,95886.34
2023-02-14T06:03:01.402Z,95879.69
2023-02-14T06:05:27.993Z,95880.25
2023-02-14T06:07:54.500Z,95874.63
2023-02-14T06:10:23.258Z,95871.59
2023-02-14T06:12:51.501Z,95869.75
2023-02-14T06:15:18.707Z,95869.69
2023-02-14T06:17:45.322Z,95878.63
2023-02-14T06:20:12.390Z,95872.97
2023-02-14T06:22:41.491Z,95876.22
2023-02-14T06:25:08.185Z,95882.13
2023-02-14T06:27:34.703Z,95884.28
2023-02-14T06:30:01.338Z,95884.28
2023-02-14T06:32:27.866Z,95885.13
2023-02-14T06:34:54.352Z,95892.38
2023-02-14T06:37:20.878Z,95889.41
2023-02-14T06:39:47.463Z,95895.28
2023-02-14T06:42:14.282Z,95895.56
2023-02-14T06:44:41.085Z,95889.84
2023-02-14T06:47:08.496Z,95889.81
2023-02-14T06:49:35.014Z,95891.13
2023-02-14T06:52:01.693Z,95899.47
2023-02-14T06:54:28.763Z,95893.28
2023-02-14T06:56:55.900Z,95901.81
2023-02-14T06:59:23.095Z,95902.94
2023-02-14T07:01:49.684Z,95907.00
2023-02-14T07:04:17.722Z,95906.25
2023-02-14T07:06:45.996Z,95906.75
2023-02-14T07:09:16.710Z,95898.06
2023-02-14T07:11:45.331Z,95894.84
2023-02-14T07:14:12.334Z,95904.47
2023-02-14T07:16:39.089Z,95900.16
2023-02-14T07:19:05.669Z,95903.09
2023-02-14T07:21:32.346Z,95906.56
2023-02-14T07:23:59.048Z,95905.97
2023-02-14T07:26:25.545Z,95896.00
2023-02-14T07:28:52.045Z,95888.78
2023-02-14T07:31:21.040Z,95894.09
2023-02-14T07:33:47.694Z,95893.50
2023-02-14T07:36:14.242Z,95900.97
2023-02-14T07:38:40.861Z,95898.56
2023-02-14T07:41:07.616Z,95893.97
2023-02-14T07:43:34.460Z,95884.53
2023-02-14T07:46:02.841Z,95883.94
2023-02-14T07:48:31.414Z,95882.19
2023-02-14T07:51:00.189Z,95871.59
2023-02-14T07:53:26.905Z,95876.59
2023-02-14T07:55:53.587Z,95876.97
2023-02-14T07:58:20.135Z,95877.97
2023-02-14T08:00:46.719Z,95877.88
2023-02-14T08:03:14.023Z,95871.78
2023-02-14T08:05:41.103Z,95868.09
2023-02-14T08:08:07.950Z,95876.25
2023-02-14T08:10:34.521Z,95870.53
2023-02-14T08:13:01.166Z,95874.88
2023-02-14T08:15:52.287Z,95868.53
2023-02-14T08:18:20.366Z,95864.03
2023-02-14T08:20:49.675Z,95860.28
2023-02-14T08:23:18.014Z,95857.03
2023-02-14T08:25:44.596Z,95864.47
2023-02-14T08:28:13.178Z,95864.19
2023-02-14T08:30:39.657Z,95862.63
2023-02-14T08:33:06.712Z,95859.03
2023-02-14T08:35:33.443Z,95867.16
2023-02-14T08:37:59.978Z,95863.69
2023-02-14T08:40:26.779Z,95859.84
2023-02-14T08:42:54.784Z,95859.06
2023-02-14T08:45:21.855Z,95866.38
2023-02-14T08:47:48.368Z,95861.13
2023-02-14T08:50:17.487Z,95859.69
2023-02-14T08:52:44.605Z,95860.63
2023-02-14T08:55:13.350Z,95851.38
2023-02-14T08:57:40.199Z,95850.38
2023-02-14T09:00:07.814Z,95848.75
2023-02-14T09:02:34.473Z,95843.47
2023-02-14T09:05:01.094Z,95848.66
2023-02-14T09:07:27.850Z,95843.16
2023-02-14T09:09:54.374Z,95841.97
2023-02-14T09:12:20.928Z,95832.75
2023-02-14T09:14:47.423Z,95838.22
2023-02-14T09:17:15.183Z,95836.94
2023-02-14T09:19:42.304Z,95832.31
2023-02-14T09:22:11.213Z,95828.50
2023-02-14T09:24:39.676Z,95834.84
2023-02-14T09:27:06.323Z,95832.91
2023-02-14T09:29:33.629Z,95829.38
2023-02-14T09:32:01.721Z,95828.97
2023-02-14T09:34:47.754Z,95832.94
2023-02-14T09:37:33.196Z,95825.97
2023-02-14T09:39:59.713Z,95823.50
2023-02-14T09:43:02.791Z,95825.69
2023-02-14T09:45:32.260Z,95821.28
2023-02-14T09:48:17.230Z,95821.38
2023-02-14T09:50:48.891Z,95823.25
2023-02-14T09:53:15.343Z,95820.38
2023-02-14T09:56:50.378Z,95825.91
2023-02-14T09:59:27.453Z,95823.13
2023-02-14T10:02:28.729Z,95818.59
2023-02-14T10:05:24.852Z,95820.16
2023-02-14T10:08:27.593Z,95820.94
2023-02-14T10:11:05.673Z,95809.00
2023-02-14T10:13:47.152Z,95810.56
2023-02-14T10:16:40.158Z,95810.03
2023-02-14T10:19:48.849Z,95805.31
2023-02-14T10:22:18.372Z,95802.59
2023-02-14T10:24:52.944Z,95805.66
2023-02-14T10:27:25.449Z,95802.00
2023-02-14T10:29:52.173Z,95794.13
2023-02-14T10:32:44.751Z,95792.94
2023-02-14T10:35:35.849Z,95784.47
2023-02-14T10:38:30.572Z,95785.81
2023-02-14T10:41:38.808Z,95782.25
2023-02-14T10:44:41.372Z,95778.91
2023-02-14T10:47:31.462Z,95768.00
2023-02-14T10:50:09.924Z,95769.38
2023-02-14T10:53:04.710Z,95770.97
2023-02-14T10:55:57.001Z,95765.28
2023-02-14T10:58:26.690Z,95763.38
2023-02-14T11:00:56.189Z,95753.63
2023-02-14T11:03:23.874Z,95753.22
2023-02-14T11:05:50.959Z,95744.13
2023-02-14T11:08:32.052Z,95729.97
2023-02-14T11:11:18.404Z,95733.31
2023-02-14T11:13:46.045Z,95728.09
2023-02-14T11:16:27.730Z,95725.94
2023-02-14T11:19:08.154Z,95722.09
2023-02-14T11:21:39.932Z,95717.66
2023-02-14T11:24:31.413Z,95721.75
2023-02-14T11:27:02.126Z,95713.59
2023-02-14T11:29:36.224Z,95714.91
2023-02-14T11:32:09.187Z,95708.88
2023-02-14T11:34:52.492Z,95704.28
2023-02-14T11:37:21.596Z,95698.00
2023-02-14T11:39:49.034Z,95695.88
2023-02-14T11:42:45.526Z,95692.47
2023-02-14T11:45:40.198Z,95688.69
2023-02-14T11:48:36.600Z,95676.25
2023-02-14T11:51:10.755Z,95685.72
2023-02-14T11:53:48.478Z,95695.09
2023-02-14T11:56:17.548Z,95685.06
2023-02-14T11:58:59.490Z,95678.94
2023-02-14T12:01:29.963Z,95678.88
2023-02-14T12:04:01.178Z,95668.34
2023-02-14T12:06:31.362Z,95674.75
2023-02-14T12:09:22.377Z,95668.56
2023-02-14T12:11:59.631Z,95663.88
2023-02-14T12:14:29.899Z,95663.16
2023-02-14T12:17:04.684Z,95656.44
2023-02-14T12:19:44.630Z,95653.81
2023-02-14T12:22:18.892Z,95653.78
2023-02-14T12:25:11.736Z,95651.88
2023-02-14T12:28:01.460Z,95650.38
2023-02-14T12:30:32.349Z,95647.69
2023-02-14T12:33:00.230Z,95644.19
2023-02-14T12:35:42.082Z,95637.06
2023-02-14T12:38:17.400Z,95629.97
2023-02-14T12:40:52.914Z,95626.44
2023-02-14T12:43:47.941Z,95632.72
2023-02-14T12:46:20.316Z,95622.53
2023-02-14T12:49:12.445Z,95626.06
2023-02-14T12:52:07.000Z,95622.53
2023-02-14T12:54:48.394Z,95619.38
2023-02-14T12:57:33.633Z,95618.22
2023-02-14T13:00:18.686Z,95609.94
2023-02-14T13:03:01.178Z,95613.88
2023-02-14T13:05:53.311Z,95608.75
2023-02-14T13:09:08.071Z,95612.69
2023-02-14T13:11:59.052Z,95610.34
2023-02-14T13:15:04.773Z,95606.00
2023-02-14T13:18:10.818Z,95598.13
2023-02-14T13:20:42.775Z,95596.94
2023-02-14T13:23:19.032Z,95592.22
2023-02-14T13:26:09.891Z,95593.41
2023-02-14T13:28:38.396Z,95583.16
2023-02-14T13:31:05.698Z,95587.88
2023-02-14T13:33:43.467Z,95577.25
2023-02-14T13:36:13.342Z,95582.34
2023-02-14T13:38:46.933Z,95574.88
2023-02-14T13:41:15.342Z,95568.50
2023-02-14T13:43:46.688Z,95570.09
2023-02-14T13:46:15.725Z,95562.63
2023-02-14T13:48:54.646Z,95565.78
2023-02-14T13:51:21.181Z,95572.88
2023-02-14T13:53:49.153Z,95557.44
2023-02-14T13:56:15.581Z,95566.50
2023-02-14T13:58:52.215Z,95566.50
2023-02-14T14:01:36.982Z,95555.09
2023-02-14T14:04:24.012Z,95564.16
2023-02-14T14:07:02.813Z,95565.34
2023-02-14T14:09:41.575Z,95560.22
2023-02-14T14:12:26.602Z,95561.03
2023-02-14T14:15:05.655Z,95565.00
2023-02-14T14:17:35.151Z,95554.38
2023-02-14T14:20:04.496Z,95555.19
2023-02-14T14:22:35.837Z,95559.09
2023-02-14T14:25:09.044Z,95554.38
2023-02-14T14:27:42.904Z,95549.69
2023-02-14T14:30:21.093Z,95555.94
2023-02-14T14:32:47.846Z,95559.84
2023-02-14T14:35:18.746Z,95556.25
2023-02-14T14:37:51.183Z,95561.63
2023-02-14T14:40:29.586Z,95559.50
2023-02-14T14:43:06.171Z,95566.06
2023-02-14T14:45:33.002Z,95568.63
2023-02-14T14:48:08.388Z,95560.44
2023-02-14T14:50:36.363Z,95560.25
2023-02-14T14:53:06.693Z,95558.00
2023-02-14T14:55:36.201Z,95569.59
2023-02-14T14:58:10.559Z,95568.50
2023-02-14T15:00:42.206Z,95567.84
2023-02-14T15:03:14.933Z,95570.53
2023-02-14T15:05:45.220Z,95573.72
2023-02-14T15:08:23.043Z,95570.91
2023-02-14T15:10:54.497Z,95566.75
2023-02-14T15:13:53.604Z,95569.44
2023-02-14T15:16:29.825Z,95566.25
2023-02-14T15:19:00.837Z,95564.28
2023-02-14T15:21:28.060Z,95572.16
2023-02-14T15:23:54.794Z,95561.00
2023-02-14T15:26:31.606Z,95565.56
2023-02-14T15:29:07.489Z,95565.28
2023-02-14T15:31:40.591Z,95563.53
2023-02-14T15:34:09.759Z,95568.84
2023-02-14T15:36:36.693Z,95572.84
2023-02-14T15:39:07.961Z,95576.50
2023-02-14T15:41:34.492Z,95569.72
2023-02-14T15:44:00.985Z,95582.00
2023-02-14T15:46:36.752Z,95567.75
2023-02-14T15:49:09.047Z,95571.81
2023-02-14T15:51:37.018Z,95569.44
2023-02-14T15:54:07.498Z,95569.13
2023-02-14T15:56:42.165Z,95565.78
2023-02-14T15:59:29.532Z,95567.44
2023-02-14T16:02:27.730Z,95567.00
2023-02-14T16:04:54.403Z,95578.88
2023-02-14T16:07:27.217Z,95570.03
2023-02-14T16:10:18.204Z,95571.41
2023-02-14T16:12:57.202Z,95567.56
2023-02-14T16:15:29.353Z,95573.66
2023-02-14T16:17:56.368Z,95582.31
2023-02-14T16:20:35.140Z,95574.38
2023-02-14T16:23:23.079Z,95589.25
2023-02-14T16:25:49.691Z,95580.00
2023-02-14T16:28:16.555Z,95581.59
2023-02-14T16:30:45.040Z,95583.09
2023-02-14T16:33:35.037Z,95579.00
2023-02-14T16:36:30.106Z,95589.19
2023-02-14T16:38:57.099Z,95584.88
2023-02-14T16:41:27.513Z,95588.59
2023-02-14T16:43:55.878Z,95592.88
2023-02-14T16:46:29.656Z,95596.03
2023-02-14T16:48:57.146Z,95589.09
2023-02-14T16:51:32.503Z,95598.91
2023-02-14T16:54:02.791Z,95601.41
2023-02-14T16:56:33.318Z,95603.41
2023-02-14T16:59:00.072Z,95616.00
2023-02-14T17:01:26.653Z,95615.53
2023-02-14T17:03:53.290Z,95629.03
2023-02-14T17:06:23.334Z,95625.38
2023-02-14T17:08:52.262Z,95618.88
2023-02-14T17:11:19.658Z,95626.13
2023-02-14T17:13:47.629Z,95629.03
2023-02-14T17:16:16.341Z,95630.19
2023-02-14T17:18:48.624Z,95636.00
2023-02-14T17:21:16.633Z,95631.06
2023-02-14T17:23:43.306Z,95639.88
2023-02-14T17:26:11.139Z,95635.44
2023-02-14T17:28:37.721Z,95643.47
2023-02-14T17:31:04.724Z,95639.19
2023-02-14T17:33:32.868Z,95643.50
2023-02-14T17:36:06.636Z,95642.53
2023-02-14T17:38:35.822Z,95640.19
2023-02-14T17:41:35.117Z,95642.09
2023-02-14T17:44:01.932Z,95640.38
2023-02-14T17:46:30.493Z,95640.53
2023-02-14T17:48:57.943Z,95637.84
2023-02-14T17:51:25.352Z,95645.97
2023-02-14T17:53:51.858Z,95641.03
2023-02-14T17:56:21.816Z,95636.72
2023-02-14T17:58:50.644Z,95641.34
2023-02-14T18:01:20.486Z,95637.84
2023-02-14T18:03:47.723Z,95635.44
2023-02-14T18:06:14.993Z,95641.34
2023-02-14T18:08:46.208Z,95645.47
2023-02-14T18:11:13.923Z,95644.50
2023-02-14T18:13:40.418Z,95643.03
2023-02-14T18:16:10.068Z,95647.78
2023-02-14T18:18:37.494Z,95651.97
2023-02-14T18:21:06.134Z,95646.19
2023-02-14T18:23:33.297Z,95655.88
2023-02-14T18:26:04.598Z,95650.00
2023-02-14T18:28:32.070Z,95645.69
2023-02-14T18:31:05.893Z,95644.88
2023-02-14T18:33:33.246Z,95640.41
2023-02-14T18:36:21.213Z,95641.84
2023-02-14T18:38:48.830Z,95636.88
2023-02-14T18:41:17.799Z,95635.75
2023-02-14T18:43:45.056Z,95642.44
2023-02-14T18:46:17.389Z,95636.53
2023-02-14T18:48:44.667Z,95643.00
2023-02-14T18:51:21.768Z,95639.63
2023-02-14T18:53:50.844Z,95635.03
2023-02-14T18:56:19.386Z,95632.63
2023-02-14T18:58:48.602Z,95625.50
2023-02-14T19:01:17.934Z,95634.09
2023-02-14T19:03:45.058Z,95627.22
2023-02-14T19:06:12.858Z,95628.03
2023-02-14T19:08:40.615Z,95626.88
2023-02-14T19:11:15.479Z,95627.34
2023-02-14T19:13:51.540Z,95629.88
2023-02-14T19:16:21.538Z,95632.00
2023-02-14T19:18:49.962Z,95624.00
2023-02-14T19:21:22.184Z,95621.91
2023-02-14T19:23:49.595Z,95620.75
2023-02-14T19:26:19.973Z,95615.53
2023-02-14T19:28:48.286Z,95621.72
2023-02-14T19:31:15.897Z,95610.25
2023-02-14T19:33:44.836Z,95612.34
2023-02-14T19:36:13.654Z,95609.09
2023-02-14T19:38:41.851Z,95608.78
2023-02-14T19:41:20.101Z,95602.72
2023-02-14T19:43:47.713Z,95599.81
2023-02-14T19:46:15.582Z,95602.06
2023-02-14T19:48:42.544Z,95605.22
2023-02-14T19:51:33.774Z,95600.88
2023-02-14T19:54:01.755Z,95598.44
2023-02-14T19:56:32.196Z,95601.25
2023-02-14T19:58:59.043Z,95588.06
2023-02-14T20:01:34.294Z,95584.75
2023-02-14T20:04:01.111Z,95582.53
2023-02-14T20:06:29.239Z,95581.75
2023-02-14T20:08:57.959Z,95580.63
2023-02-14T20:11:35.418Z,95577.75
2023-02-14T20:14:13.016Z,95581.75
2023-02-14T20:16:40.345Z,95577.75
2023-02-14T20:19:12.056Z,95567.16
2023-02-14T20:21:41.854Z,95567.75
2023-02-14T20:24:10.458Z,95570.72
2023-02-14T20:26:39.337Z,95570.53
2023-02-14T20:29:07.347Z,95572.03
2023-02-14T20:31:34.631Z,95571.44
2023-02-14T20:34:02.537Z,95566.31
2023-02-14T20:36:29.549Z,95559.81
2023-02-14T20:39:02.140Z,95571.47
2023-02-14T20:41:34.553Z,95562.09
2023-02-14T20:44:22.511Z,95573.06
2023-02-14T20:46:51.419Z,95563.88
2023-02-14T20:49:21.537Z,95565.94
2023-02-14T20:51:52.366Z,95552.09
2023-02-14T20:54:21.790Z,95557.00
2023-02-14T20:56:48.589Z,95547.22
2023-02-14T20:59:15.085Z,95550.56
2023-02-14T21:01:41.747Z,95550.06
2023-02-14T21:04:08.386Z,95543.06
2023-02-14T21:06:35.637Z,95547.47
2023-02-14T21:09:03.778Z,95540.16
2023-02-14T21:11:30.358Z,95545.19
2023-02-14T21:13:59.987Z,95541.50
2023-02-14T21:16:27.719Z,95538.84
2023-02-14T21:18:58.847Z,95542.13
2023-02-14T21:21:35.248Z,95527.75
2023-02-14T21:24:05.181Z,95525.56
2023-02-14T21:26:31.974Z,95536.06
2023-02-14T21:28:58.594Z,95530.47
2023-02-14T21:31:25.717Z,95532.75
2023-02-14T21:33:55.134Z,95527.34
2023-02-14T21:36:24.257Z,95531.38
2023-02-14T21:38:51.349Z,95522.69
2023-02-14T21:41:26.096Z,95524.59
2023-02-14T21:43:56.188Z,95519.59
2023-02-14T21:46:27.386Z,95524.78
2023-02-14T21:49:13.895Z,95520.28
2023-02-14T21:51:40.852Z,95519.41
2023-02-14T21:54:08.541Z,95521.22
2023-02-14T21:56:36.710Z,95515.13
2023-02-14T21:59:03.671Z,95510.53
2023-02-14T22:01:35.437Z,95507.06
2023-02-14T22:04:02.761Z,95513.34
2023-02-14T22:06:29.353Z,95514.44
2023-02-14T22:09:01.499Z,95514.44
2023-02-14T22:11:29.384Z,95505.38
2023-02-14T22:13:56.434Z,95499.78
2023-02-14T22:16:24.550Z,95509.44
2023-02-14T22:18:51.638Z,95507.16
2023-02-14T22:21:23.390Z,95499.66
2023-02-14T22:23:50.231Z,95502.97
2023-02-14T22:26:28.381Z,95494.78
2023-02-14T22:28:59.010Z,95497.66
2023-02-14T22:31:27.936Z,95500.47
2023-02-14T22:33:54.956Z,95495.59
2023-02-14T22:36:21.609Z,95497.19
2023-02-14T22:38:48.128Z,95493.69
2023-02-14T22:41:17.596Z,95493.28
2023-02-14T22:43:44.981Z,95486.09
2023-02-14T22:46:12.616Z,95496.06
2023-02-14T22:48:39.806Z,95485.22
2023-02-14T22:51:07.370Z,95482.59
2023-02-14T22:53:34.207Z,95485.22
2023-02-14T22:56:16.077Z,95485.81
2023-02-14T22:58:42.723Z,95487.91
2023-02-14T23:01:17.011Z,95482.63
2023-02-14T23:03:44.960Z,95478.72
2023-02-14T23:06:12.498Z,95480.63
2023-02-14T23:08:40.639Z,95477.41
2023-02-14T23:11:13.214Z,95477.84
2023-02-14T23:13:58.134Z,95483.50
2023-02-14T23:16:43.691Z,95478.22
2023-02-14T23:19:32.701Z,95472.25
2023-02-14T23:22:12.464Z,95477.81
2023-02-14T23:24:39.301Z,95477.00
2023-02-14T23:27:06.714Z,95468.44
2023-02-14T23:29:33.663Z,95467.56
2023-02-14T23:32:00.200Z,95462.94
2023-02-14T23:34:29.651Z,95470.63
2023-02-14T23:36:56.143Z,95468.91
2023-02-14T23:39:22.809Z,95469.44
2023-02-14T23:41:49.689Z,95470.03
2023-02-14T23:44:21.801Z,95467.63
2023-02-14T23:46:51.814Z,95456.84
2023-02-14T23:49:19.030Z,95467.13
2023-02-14T23:51:47.411Z,95458.88
2023-02-14T23:54:14.840Z,95449.09
2023-02-14T23:56:41.408Z,95457.53
2023-02-14T23:59:08.518Z,95451.75
